Time,TemperatureF,DewpointF,PressureIn,WindDirection,WindDirectionDegrees,WindSpeedMPH,WindSpeedGustMPH,Humidity,HourlyPrecipIn,Conditions,Clouds,dailyrainin,SoftwareType,DateUTC
2013-11-06 00:11:00,-999.0,-99.9,30.12,North,-999,-999.0,-999.0,-999,0.00,,,0.00,weatherlink.com 1.10,2013-11-06 05:11:00,
2013-11-06 00:26:00,-999.0,-99.9,30.12,North,-999,-999.0,-999.0,-999,0.00,,,0.00,weatherlink.com 1.10,2013-11-06 05:26:00,
2013-11-06 00:41:00,-999.0,-99.9,30.12,North,-999,-999.0,-999.0,-999,0.00,,,0.00,weatherlink.com 1.10,2013-11-06 05:41:00,
2013-11-06 00:56:00,-999.0,-99.9,30.12,North,-999,-999.0,-999.0,-999,0.00,,,0.00,weatherlink.com 1.10,2013-11-06 05:56:00,
2013-11-06 01:12:00,-999.0,-99.9,30.12,North,-999,-999.0,-999.0,-999,0.00,,,0.00,weatherlink.com 1.10,2013-11-06 06:12:00,
2013-11-06 01:27:00,-999.0,-99.9,30.11,North,-999,-999.0,-999.0,-999,0.00,,,0.00,weatherlink.com 1.10,2013-11-06 06:27:00,
2013-11-06 01:42:00,-999.0,-99.9,30.11,North,-999,-999.0,-999.0,-999,0.00,,,0.00,weatherlink.com 1.10,2013-11-06 06:42:00,
2013-11-06 01:56:00,-999.0,-99.9,30.11,North,-999,-999.0,-999.0,-999,0.00,,,0.00,weatherlink.com 1.10,2013-11-06 06:56:00,
2013-11-06 02:11:00,-999.0,-99.9,30.10,North,-999,-999.0,-999.0,-999,0.00,,,0.00,weatherlink.com 1.10,2013-11-06 07:11:00,
2013-11-06 02:26:00,-999.0,-99.9,30.09,North,-999,-999.0,-999.0,-999,0.00,,,0.00,weatherlink.com 1.10,2013-11-06 07:26:00,
2013-11-06 02:41:00,-999.0,-99.9,30.09,North,-999,-999.0,-999.0,-999,0.00,,,0.00,weatherlink.com 1.10,2013-11-06 07:41:00,
2013-11-06 02:57:00,-999.0,-99.9,30.08,North,-999,-999.0,-999.0,-999,0.00,,,0.00,weatherlink.com 1.10,2013-11-06 07:57:00,
2013-11-06 03:12:00,-999.0,-99.9,30.08,North,-999,-999.0,-999.0,-999,0.00,,,0.00,weatherlink.com 1.10,2013-11-06 08:12:00,
2013-11-06 03:27:00,-999.0,-99.9,30.08,North,-999,-999.0,-999.0,-999,0.00,,,0.00,weatherlink.com 1.10,2013-11-06 08:27:00,
2013-11-06 03:42:00,-999.0,-99.9,30.08,North,-999,-999.0,-999.0,-999,0.00,,,0.00,weatherlink.com 1.10,2013-11-06 08:42:00,
2013-11-06 03:57:00,-999.0,-99.9,30.08,North,-999,-999.0,-999.0,-999,0.00,,,0.00,weatherlink.com 1.10,2013-11-06 08:57:00,
2013-11-06 04:12:00,-999.0,-99.9,30.08,North,-999,-999.0,-999.0,-999,0.00,,,0.00,weatherlink.com 1.10,2013-11-06 09:12:00,
2013-11-06 04:27:00,-999.0,-99.9,30.08,North,-999,-999.0,-999.0,-999,0.00,,,0.00,weatherlink.com 1.10,2013-11-06 09:27:00,
2013-11-06 04:42:00,-999.0,-99.9,30.08,North,-999,-999.0,-999.0,-999,0.00,,,0.00,weatherlink.com 1.10,2013-11-06 09:42:00,
2013-11-06 04:57:00,-999.0,-99.9,30.08,North,-999,-999.0,-999.0,-999,0.00,,,0.00,weatherlink.com 1.10,2013-11-06 09:57:00,
2013-11-06 05:12:00,-999.0,-99.9,30.09,North,-999,-999.0,-999.0,-999,0.00,,,0.00,weatherlink.com 1.10,2013-11-06 10:12:00,
2013-11-06 05:27:00,-999.0,-99.9,30.09,North,-999,-999.0,-999.0,-999,0.00,,,0.00,weatherlink.com 1.10,2013-11-06 10:27:00,
2013-11-06 05:42:00,-999.0,-99.9,30.09,North,-999,-999.0,-999.0,-999,0.00,,,0.00,weatherlink.com 1.10,2013-11-06 10:42:00,
2013-11-06 05:57:00,-999.0,-99.9,30.10,North,-999,-999.0,-999.0,-999,0.00,,,0.00,weatherlink.com 1.10,2013-11-06 10:57:00,
2013-11-06 06:12:00,-999.0,-99.9,30.10,North,-999,-999.0,-999.0,-999,0.00,,,0.00,weatherlink.com 1.10,2013-11-06 11:12:00,
2013-11-06 06:27:00,-999.0,-99.9,30.10,North,-999,-999.0,-999.0,-999,0.00,,,0.00,weatherlink.com 1.10,2013-11-06 11:27:00,
2013-11-06 06:42:00,-999.0,-99.9,30.11,North,-999,-999.0,-999.0,-999,0.00,,,0.00,weatherlink.com 1.10,2013-11-06 11:42:00,
2013-11-06 06:57:00,-999.0,-99.9,30.11,North,-999,-999.0,-999.0,-999,0.00,,,0.00,weatherlink.com 1.10,2013-11-06 11:57:00,
2013-11-06 07:13:00,-999.0,-99.9,30.11,North,-999,-999.0,-999.0,-999,0.00,,,0.00,weatherlink.com 1.10,2013-11-06 12:13:00,
2013-11-06 07:28:00,-999.0,-99.9,30.12,North,-999,-999.0,-999.0,-999,0.00,,,0.00,weatherlink.com 1.10,2013-11-06 12:28:00,
2013-11-06 07:43:00,71.6,67.0,30.12,ENE,78,8.0,8.0,86,0.00,,,0.00,weatherlink.com 1.10,2013-11-06 12:43:00,
2013-11-06 07:58:00,-999.0,-99.9,30.12,North,-999,-999.0,-999.0,-999,0.00,,,0.00,weatherlink.com 1.10,2013-11-06 12:58:00,
2013-11-06 08:13:00,-999.0,-99.9,30.12,North,-999,-999.0,-999.0,-999,0.00,,,0.00,weatherlink.com 1.10,2013-11-06 13:13:00,
2013-11-06 08:28:00,-999.0,-99.9,30.12,North,-999,-999.0,-999.0,-999,0.00,,,0.00,weatherlink.com 1.10,2013-11-06 13:28:00,
2013-11-06 08:43:00,74.5,69.0,30.12,ENE,72,6.0,9.0,82,0.00,,,0.00,weatherlink.com 1.10,2013-11-06 13:43:00,
2013-11-06 08:58:00,75.4,69.0,30.12,ENE,60,5.0,8.0,79,0.00,,,0.00,weatherlink.com 1.10,2013-11-06 13:58:00,
2013-11-06 09:13:00,76.1,69.0,30.13,SE,131,6.0,12.0,78,0.00,,,0.00,weatherlink.com 1.10,2013-11-06 14:13:00,
2013-11-06 09:28:00,76.1,69.0,30.12,East,87,3.0,8.0,78,0.00,,,0.00,weatherlink.com 1.10,2013-11-06 14:28:00,
2013-11-06 09:43:00,77.2,69.0,30.13,ESE,107,10.0,11.0,75,0.00,,,0.00,weatherlink.com 1.10,2013-11-06 14:43:00,
2013-11-06 09:58:00,77.9,69.0,30.12,East,89,4.0,8.0,73,0.00,,,0.00,weatherlink.com 1.10,2013-11-06 14:58:00,
2013-11-06 10:13:00,78.0,67.0,30.12,ESE,105,7.0,14.0,70,0.00,,,0.00,weatherlink.com 1.10,2013-11-06 15:13:00,
2013-11-06 10:28:00,78.4,67.0,30.12,East,94,5.0,14.0,69,0.00,,,0.00,weatherlink.com 1.10,2013-11-06 15:28:00,
2013-11-06 10:43:00,78.7,67.0,30.12,ESE,108,10.0,15.0,68,0.00,,,0.00,weatherlink.com 1.10,2013-11-06 15:43:00,
2013-11-06 10:58:00,78.7,68.0,30.11,NE,42,8.0,11.0,69,0.00,,,0.00,weatherlink.com 1.10,2013-11-06 15:58:00,
2013-11-06 11:13:00,78.9,67.0,30.11,ENE,64,6.0,11.0,68,0.00,,,0.00,weatherlink.com 1.10,2013-11-06 16:13:00,
2013-11-06 11:28:00,79.2,68.0,30.11,ENE,63,4.0,12.0,69,0.00,,,0.00,weatherlink.com 1.10,2013-11-06 16:28:00,
2013-11-06 11:43:00,79.6,67.0,30.10,East,89,10.0,13.0,66,0.00,,,0.00,weatherlink.com 1.10,2013-11-06 16:43:00,
2013-11-06 11:58:00,80.1,68.0,30.10,ESE,120,5.0,13.0,66,0.00,,,0.00,weatherlink.com 1.10,2013-11-06 16:58:00,
2013-11-06 12:13:00,80.5,67.0,30.09,SSE,147,3.0,10.0,64,0.00,,,0.00,weatherlink.com 1.10,2013-11-06 17:13:00,
2013-11-06 12:28:00,81.2,67.0,30.09,East,84,8.0,10.0,63,0.00,,,0.00,weatherlink.com 1.10,2013-11-06 17:28:00,
2013-11-06 12:44:00,81.5,66.0,30.08,ENE,72,7.0,14.0,59,0.00,,,0.00,weatherlink.com 1.10,2013-11-06 17:44:00,
2013-11-06 12:59:00,81.5,65.0,30.08,ENE,75,6.0,15.0,58,0.00,,,0.00,weatherlink.com 1.10,2013-11-06 17:59:00,
2013-11-06 13:14:00,81.6,65.0,30.07,East,81,7.0,13.0,58,0.00,,,0.00,weatherlink.com 1.10,2013-11-06 18:14:00,
2013-11-06 13:29:00,82.0,66.0,30.06,ENE,68,10.0,10.0,58,0.00,,,0.00,weatherlink.com 1.10,2013-11-06 18:29:00,
2013-11-06 13:44:00,82.8,65.0,30.06,ENE,66,9.0,9.0,55,0.00,,,0.00,weatherlink.com 1.10,2013-11-06 18:44:00,
2013-11-06 13:59:00,82.5,65.0,30.05,East,83,4.0,10.0,56,0.00,,,0.00,weatherlink.com 1.10,2013-11-06 18:59:00,
2013-11-06 14:14:00,83.1,66.0,30.05,NNE,19,7.0,10.0,56,0.00,,,0.00,weatherlink.com 1.10,2013-11-06 19:14:00,
2013-11-06 14:29:00,82.8,65.0,30.05,NNW,340,1.0,9.0,56,0.00,,,0.00,weatherlink.com 1.10,2013-11-06 19:29:00,
2013-11-06 14:44:00,84.6,66.0,30.05,ENE,69,6.0,6.0,54,0.00,,,0.00,weatherlink.com 1.10,2013-11-06 19:44:00,
2013-11-06 14:59:00,83.2,66.0,30.05,North,5,0.0,7.0,57,0.00,,,0.00,weatherlink.com 1.10,2013-11-06 19:59:00,
2013-11-06 15:14:00,83.4,66.0,30.04,North,9,2.0,5.0,55,0.00,,,0.00,weatherlink.com 1.10,2013-11-06 20:14:00,
2013-11-06 15:29:00,82.6,66.0,30.04,NNW,339,5.0,12.0,58,0.00,,,0.00,weatherlink.com 1.10,2013-11-06 20:29:00,
2013-11-06 15:44:00,84.1,66.0,30.04,East,94,3.0,5.0,55,0.00,,,0.00,weatherlink.com 1.10,2013-11-06 20:44:00,
2013-11-06 15:59:00,83.1,66.0,30.03,NE,37,1.0,7.0,56,0.00,,,0.00,weatherlink.com 1.10,2013-11-06 20:59:00,
2013-11-06 16:14:00,82.7,66.0,30.03,NNE,18,3.0,6.0,58,0.00,,,0.00,weatherlink.com 1.10,2013-11-06 21:14:00,
2013-11-06 16:29:00,82.7,66.0,30.04,NNE,13,7.0,10.0,57,0.00,,,0.00,weatherlink.com 1.10,2013-11-06 21:29:00,
2013-11-06 16:44:00,80.7,69.0,30.04,NW,314,9.0,12.0,68,0.00,,,0.00,weatherlink.com 1.10,2013-11-06 21:44:00,
2013-11-06 16:59:00,79.4,69.0,30.04,NNW,335,7.0,12.0,71,0.00,,,0.00,weatherlink.com 1.10,2013-11-06 21:59:00,
2013-11-06 17:14:00,79.0,69.0,30.04,NNW,336,8.0,10.0,71,0.00,,,0.00,weatherlink.com 1.10,2013-11-06 22:14:00,
2013-11-06 17:29:00,78.1,68.0,30.04,NW,304,6.0,8.0,71,0.00,,,0.00,weatherlink.com 1.10,2013-11-06 22:29:00,
2013-11-06 17:44:00,-999.0,-99.9,30.05,North,-999,-999.0,-999.0,-999,0.00,,,0.00,weatherlink.com 1.10,2013-11-06 22:44:00,
2013-11-06 17:59:00,-999.0,-99.9,30.04,North,-999,-999.0,-999.0,-999,0.00,,,0.00,weatherlink.com 1.10,2013-11-06 22:59:00,
2013-11-06 18:14:00,-999.0,-99.9,30.04,North,-999,-999.0,-999.0,-999,0.00,,,0.00,weatherlink.com 1.10,2013-11-06 23:14:00,
2013-11-06 18:29:00,-999.0,-99.9,30.05,North,-999,-999.0,-999.0,-999,0.00,,,0.00,weatherlink.com 1.10,2013-11-06 23:29:00,
2013-11-06 18:44:00,-999.0,-99.9,30.05,North,-999,-999.0,-999.0,-999,0.00,,,0.00,weatherlink.com 1.10,2013-11-06 23:44:00,
2013-11-06 18:59:00,-999.0,-99.9,30.06,North,-999,-999.0,-999.0,-999,0.00,,,0.00,weatherlink.com 1.10,2013-11-06 23:59:00,
2013-11-06 19:14:00,-999.0,-99.9,30.06,North,-999,-999.0,-999.0,-999,0.00,,,0.00,weatherlink.com 1.10,2013-11-07 00:14:00,
2013-11-06 19:30:00,-999.0,-99.9,30.06,North,-999,-999.0,-999.0,-999,0.00,,,0.00,weatherlink.com 1.10,2013-11-07 00:30:00,
2013-11-06 19:45:00,-999.0,-99.9,30.06,North,-999,-999.0,-999.0,-999,0.00,,,0.00,weatherlink.com 1.10,2013-11-07 00:45:00,
2013-11-06 20:00:00,-999.0,-99.9,30.06,North,-999,-999.0,-999.0,-999,0.00,,,0.00,weatherlink.com 1.10,2013-11-07 01:00:00,
2013-11-06 20:15:00,-999.0,-99.9,30.07,North,-999,-999.0,-999.0,-999,0.00,,,0.00,weatherlink.com 1.10,2013-11-07 01:15:00,
2013-11-06 20:30:00,-999.0,-99.9,30.08,North,-999,-999.0,-999.0,-999,0.00,,,0.00,weatherlink.com 1.10,2013-11-07 01:30:00,
2013-11-06 20:45:00,-999.0,-99.9,30.08,North,-999,-999.0,-999.0,-999,0.00,,,0.00,weatherlink.com 1.10,2013-11-07 01:45:00,
2013-11-06 21:00:00,-999.0,-99.9,30.09,North,-999,-999.0,-999.0,-999,0.00,,,0.00,weatherlink.com 1.10,2013-11-07 02:00:00,
2013-11-06 21:15:00,-999.0,-99.9,30.09,North,-999,-999.0,-999.0,-999,0.00,,,0.00,weatherlink.com 1.10,2013-11-07 02:15:00,
2013-11-06 21:30:00,-999.0,-99.9,30.09,North,-999,-999.0,-999.0,-999,0.00,,,0.00,weatherlink.com 1.10,2013-11-07 02:30:00,
2013-11-06 21:45:00,-999.0,-99.9,30.09,North,-999,-999.0,-999.0,-999,0.00,,,0.00,weatherlink.com 1.10,2013-11-07 02:45:00,
2013-11-06 22:00:00,-999.0,-99.9,30.08,North,-999,-999.0,-999.0,-999,0.00,,,0.00,weatherlink.com 1.10,2013-11-07 03:00:00,
2013-11-06 22:15:00,-999.0,-99.9,30.08,North,-999,-999.0,-999.0,-999,0.00,,,0.00,weatherlink.com 1.10,2013-11-07 03:15:00,
2013-11-06 22:30:00,-999.0,-99.9,30.08,North,-999,-999.0,-999.0,-999,0.00,,,0.00,weatherlink.com 1.10,2013-11-07 03:30:00,
2013-11-06 22:45:00,-999.0,-99.9,30.08,North,-999,-999.0,-999.0,-999,0.00,,,0.00,weatherlink.com 1.10,2013-11-07 03:45:00,
2013-11-06 23:01:00,-999.0,-99.9,30.08,North,-999,-999.0,-999.0,-999,0.00,,,0.00,weatherlink.com 1.10,2013-11-07 04:01:00,
2013-11-06 23:16:00,-999.0,-99.9,30.08,North,-999,-999.0,-999.0,-999,0.00,,,0.00,weatherlink.com 1.10,2013-11-07 04:16:00,
2013-11-06 23:31:00,-999.0,-99.9,30.08,North,-999,-999.0,-999.0,-999,0.00,,,0.00,weatherlink.com 1.10,2013-11-07 04:31:00,
2013-11-06 23:46:00,-999.0,-99.9,30.08,North,-999,-999.0,-999.0,-999,0.00,,,0.00,weatherlink.com 1.10,2013-11-07 04:46:00,